Home   Weather   Spain   Sevilla   Past weeks
Flag for Spain

Past Weather in Sevilla, Seville, Spain — May 2021

Currently: 68 °F. Sunny. (Weather station: Sevilla / San Pablo, Spain). See more current weather

May 2021 Weather in Sevilla — Graph

°F

High & Low Weather Summary for May 2021

 TemperatureHumidityPressure
High93 °F (May 19, 5:30 pm)100% (May 28, 6:30 am)30.24 "Hg (May 28, 6:30 am)
Low46 °F (May 2, 5:30 am)8% (May 22, 3:00 pm)29.77 "Hg (May 8, 10:00 pm)
Average71 °F51%30.01 "Hg
* Reported May 1 12:00 am — May 31 11:30 pm, Sevilla. Weather by CustomWeather, © 2024

Note: Actual official high and low records may vary slightly from our data, if they occured in-between our weather recording intervals... More about our weather records

Sevilla Weather History for May 1, 2021

Scroll right to see more
 ConditionsComfort  
Time TempWeatherWind HumidityBarometerVisibility
12:00 am
Sat, May 1
61 °FClear.10 mph52%29.89 "Hg10 mi
1:30 am57 °FClear.8 mph63%29.92 "Hg10 mi
2:00 am57 °FClear.8 mph59%29.92 "Hg10 mi
2:30 am55 °FClear.3 mph67%29.92 "Hg10 mi
3:30 am54 °FPassing clouds.3 mph77%29.92 "HgN/A
4:00 am54 °FClear.6 mph72%29.92 "Hg10 mi
4:30 am55 °FClear.8 mph63%29.92 "Hg10 mi
5:00 am54 °FPassing clouds.6 mph67%29.92 "HgN/A
5:30 am54 °FClear.7 mph67%29.92 "Hg10 mi
6:00 am52 °FPassing clouds.5 mph72%29.92 "HgN/A
6:30 am50 °FClear.7 mph76%29.95 "Hg10 mi
7:00 am48 °FPassing clouds.6 mph82%29.95 "HgN/A
7:30 am50 °FPassing clouds.8 mph71%29.95 "HgN/A
8:00 am48 °FPassing clouds.6 mph82%29.98 "HgN/A
8:30 am52 °FPassing clouds.5 mph67%29.98 "HgN/A
9:00 am54 °FPassing clouds.5 mph63%29.98 "HgN/A
9:30 am54 °FPassing clouds.5 mph63%30.01 "HgN/A
10:00 am55 °FPassing clouds.6 mph55%30.01 "HgN/A
10:30 am55 °FPassing clouds.8 mph59%30.01 "HgN/A
11:00 am57 °FPassing clouds.9 mph59%30.01 "HgN/A
11:30 am59 °FPassing clouds.9 mph55%30.01 "HgN/A
12:00 pm59 °FScattered clouds.9 mph55%30.01 "HgN/A
12:30 pm61 °FScattered clouds.12 mph48%30.01 "HgN/A
1:00 pm63 °FScattered clouds.12 mph45%30.01 "HgN/A
1:30 pm63 °FPassing clouds.13 mph45%30.01 "HgN/A
2:00 pm64 °FPassing clouds.10 mph43%30.01 "HgN/A
2:30 pm66 °FPassing clouds.16 mph37%29.98 "HgN/A
3:00 pm66 °FSunny.15 mph37%29.98 "Hg10 mi
3:30 pm68 °FPassing clouds.12 mph33%29.98 "HgN/A
4:00 pm68 °FPassing clouds.12 mph33%29.98 "HgN/A
4:30 pm68 °FPassing clouds.12 mph33%29.98 "HgN/A
5:00 pm68 °FPassing clouds.12 mph33%29.98 "HgN/A
5:30 pm68 °FPassing clouds.13 mph35%29.95 "HgN/A
6:00 pm70 °FSunny.8 mph31%29.95 "Hg10 mi
6:30 pm70 °FPassing clouds.10 mph27%29.98 "HgN/A
7:00 pm68 °FPassing clouds.9 mph30%29.98 "HgN/A
7:30 pm68 °FPassing clouds.14 mph30%29.98 "HgN/A
8:00 pm68 °FPassing clouds.15 mph30%29.98 "HgN/A
8:30 pm66 °FPassing clouds.15 mph32%29.98 "HgN/A
9:00 pm64 °FPassing clouds.13 mph49%30.01 "HgN/A
9:30 pm63 °FPassing clouds.13 mph56%30.01 "HgN/A
10:00 pm61 °FPassing clouds.13 mph59%30.01 "HgN/A
10:30 pm61 °FPassing clouds.12 mph63%30.04 "HgN/A
11:00 pm59 °FPassing clouds.9 mph68%30.04 "HgN/A
11:30 pm59 °FPassing clouds.7 mph72%30.04 "HgN/A
Weather by CustomWeather, © 2024

See weather overview